Platitera Tonouranon — SX7180 — position and weather

sailwx.info

Track history (hours):
 
Tides and Currents Weather Stations Pressure Air Temp Water Temp Dewpoint Dewpoint Depression Visibility Wind Speed Wind Dir Waves Ship Positions

Platitera Tonouranon

Last reported at 2017-Jan-20 13:33 UTC. Time now 2017-Jan-20 20:12 UTC.
Position N 37°56' E 023°41'.

Length 55 m; draft 3.8 m.

Type: Ship (hazmat cat A). MMSI: 237038200.

Date/timePositionNaut miles runAvg speedWind from/ knotsBaromVisibWave heightAir tempDewpointWater temp
2017-Jan-20 13:33N 37°56' E 023°41'0 0.0
2017-Jan-20 12:34N 37°56' E 023°41'0 0.0
2017-Jan-20 11:33N 37°56' E 023°41'0 0.0
2017-Jan-20 10:34N 37°56' E 023°41'0 0.0
2017-Jan-20 09:33N 37°56' E 023°41'0 0.0
2017-Jan-20 08:33N 37°56' E 023°41'0 0.0
2017-Jan-20 07:33N 37°56' E 023°41'0 0.0
2017-Jan-20 06:33N 37°56' E 023°41'0 0.0
2017-Jan-20 05:33N 37°56' E 023°41'0 0.0
2017-Jan-19 18:33N 37°56' E 023°41'0 0.1
2017-Jan-19 17:33N 37°56' E 023°41'1110.9
2017-Jan-19 16:33N 37°46' E 023°37'1211.6
2017-Jan-19 15:33N 37°35' E 023°33'1211.2
2017-Jan-19 14:29N 37°23' E 023°29'5 2.3
2017-Jan-19 12:11N 37°28' E 023°30'3 3.2
2017-Jan-19 11:10N 37°30' E 023°27'6 9.7
2017-Jan-19 10:32N 37°36' E 023°26'9 8.0
2017-Jan-19 09:26N 37°45' E 023°26'0 0.0
2017-Jan-19 08:33N 37°45' E 023°26'2 2.0
2017-Jan-19 07:33N 37°47' E 023°26'1111.0
2017-Jan-19 06:33N 37°52' E 023°38'5 4.6
2017-Jan-19 05:33N 37°56' E 023°41'0 0.0
2017-Jan-19 04:34N 37°56' E 023°41'0 0.0
2017-Jan-18 16:28N 37°56' E 023°41'0 0.0
2017-Jan-18 15:33N 37°56' E 023°41'0 0.0
2017-Jan-18 14:33N 37°56' E 023°41'0 0.0
2017-Jan-18 13:33N 37°56' E 023°41'0 0.0
2017-Jan-18 12:33N 37°56' E 023°41'0 0.0
2017-Jan-18 11:33N 37°56' E 023°41'0 0.0
2017-Jan-18 10:33N 37°56' E 023°41'0 0.0
2017-Jan-18 09:33N 37°56' E 023°41'0 0.0
2017-Jan-18 08:33N 37°56' E 023°41'0 0.0
2017-Jan-18 07:33N 37°56' E 023°41'0 0.0
2017-Jan-18 06:33N 37°56' E 023°41'0 0.0
2017-Jan-17 17:33N 37°56' E 023°41'9 9.0
2017-Jan-17 16:33N 37°49' E 023°34'8 7.3
2017-Jan-17 15:27N 37°45' E 023°26'0 0.0
2017-Jan-17 14:32N 37°45' E 023°26'4 4.4
2017-Jan-17 13:33N 37°40' E 023°26'1211.5
2017-Jan-17 12:28N 37°29' E 023°32'2 0.7
2017-Jan-17 09:33N 37°29' E 023°29'3 3.3
2017-Jan-17 08:32N 37°31' E 023°25'1111.7
2017-Jan-17 07:33N 37°41' E 023°32'1211.8
2017-Jan-17 06:34N 37°52' E 023°37'5 0.4
2017-Jan-16 17:14N 37°56' E 023°41'812.5
2017-Jan-16 16:33N 37°49' E 023°35'9 7.7
2017-Jan-16 15:25N 37°45' E 023°26'5 2.3
2017-Jan-16 13:23N 37°40' E 023°25'13 6.2
2017-Jan-16 11:13N 37°27' E 023°31'2 0.6
2017-Jan-16 08:24N 37°29' E 023°32'1011.9
2017-Jan-16 07:32N 37°39' E 023°32'1211.7
2017-Jan-16 06:33N 37°50' E 023°36'7 7.1
2017-Jan-16 05:33N 37°56' E 023°41'0 0.0
2017-Jan-16 04:34N 37°56' E 023°41'0 0.0
2017-Jan-15 17:11N 37°56' E 023°41'0 0.0
2017-Jan-15 16:33N 37°56' E 023°41'7 7.4
2017-Jan-15 15:33N 37°52' E 023°34'12 4.0
2017-Jan-15 12:32N 37°41' E 023°27'1211.7
2017-Jan-15 11:32N 37°30' E 023°32'4 1.1
2017-Jan-15 08:26N 37°33' E 023°32'1112.0
2017-Jan-15 07:33N 37°44' E 023°33'1211.7
2017-Jan-15 06:33N 37°54' E 023°39'2 2.4
2017-Jan-15 05:33N 37°56' E 023°41'0 0.0
2017-Jan-15 04:33N 37°56' E 023°41'0 0.0
2017-Jan-14 18:10N 37°56' E 023°41'0 0.0
2017-Jan-14 17:33N 37°56' E 023°41'3 3.2
2017-Jan-14 16:33N 37°54' E 023°38'1211.5
2017-Jan-14 15:33N 37°47' E 023°26'3 1.8
2017-Jan-14 14:03N 37°45' E 023°26'0 0.0
2017-Jan-14 13:32N 37°45' E 023°26'7 7.6
2017-Jan-14 12:33N 37°37' E 023°27'1511.0
2017-Jan-14 11:12N 37°23' E 023°29'1 0.5
2017-Jan-14 09:20N 37°22' E 023°28'1010.7
2017-Jan-14 08:25N 37°31' E 023°32'1011.8
2017-Jan-14 07:33N 37°42' E 023°32'1111.5
2017-Jan-14 06:33N 37°52' E 023°38'5 4.7
2017-Jan-14 05:33N 37°56' E 023°41'0 0.0
2017-Jan-14 04:33N 37°56' E 023°41'0 0.0
2017-Jan-13 17:33N 37°56' E 023°41'9 8.6
2017-Jan-13 16:33N 37°51' E 023°33'8 3.3
2017-Jan-13 14:04N 37°45' E 023°26'4 8.1
2017-Jan-13 13:32N 37°40' E 023°25'1110.8
2017-Jan-13 12:33N 37°30' E 023°27'8 2.5
2017-Jan-13 09:12N 37°22' E 023°28'1911.6
2017-Jan-13 07:32N 37°40' E 023°35'1211.9
2017-Jan-13 06:33N 37°51' E 023°39'5 0.4
2017-Jan-12 17:33N 37°56' E 023°41'9 8.6
2017-Jan-12 16:33N 37°48' E 023°37'1212.0
2017-Jan-12 15:33N 37°38' E 023°29'16 6.4
2017-Jan-12 13:06N 37°22' E 023°29'11 4.2
2017-Jan-12 10:33N 37°33' E 023°30'1211.9
2017-Jan-12 09:33N 37°44' E 023°25'1 0.7
2017-Jan-12 08:20N 37°45' E 023°26'1 1.6
2017-Jan-12 07:33N 37°46' E 023°25'1211.6
2017-Jan-12 06:33N 37°53' E 023°36'5 5.1
2017-Jan-12 05:33N 37°56' E 023°41'0 0.0
2017-Jan-12 04:33N 37°56' E 023°41'0 0.0
2017-Jan-12 03:34N 37°56' E 023°41'0 0.0
2017-Jan-12 02:33N 37°56' E 023°41'0 0.0
2017-Jan-12 01:34N 37°56' E 023°41'0 0.0
2017-Jan-12 00:33N 37°56' E 023°41'0 0.0
2017-Jan-11 23:33N 37°56' E 023°41'0 0.0
2017-Jan-11 22:33N 37°56' E 023°41'0 0.0
2017-Jan-11 21:33N 37°56' E 023°41'0 0.0
2017-Jan-11 20:34N 37°56' E 023°41'0 0.0
2017-Jan-11 19:33N 37°56' E 023°41'0 0.0
2017-Jan-11 18:33N 37°56' E 023°41'0 0.0
2017-Jan-11 17:33N 37°56' E 023°41'0 0.0
2017-Jan-11 16:33N 37°56' E 023°41'0 0.0
2017-Jan-11 15:33N 37°56' E 023°41'0 0.0
2017-Jan-11 14:34N 37°56' E 023°41'0 0.0
2017-Jan-11 13:34N 37°56' E 023°41'0 0.0
2017-Jan-11 12:33N 37°56' E 023°41'0 0.0
2017-Jan-11 11:33N 37°56' E 023°41'0 0.0
2017-Jan-11 10:34N 37°56' E 023°41'0 0.0
2017-Jan-11 09:33N 37°56' E 023°41'0 0.0
2017-Jan-11 08:34N 37°56' E 023°41'0 0.0
2017-Jan-11 07:33N 37°56' E 023°41'0 0.0
2017-Jan-11 06:33N 37°56' E 023°41'0 0.0
2017-Jan-10 13:34N 37°56' E 023°41'  
Track history (hours):
 
Tides and Currents Weather Stations Pressure Air Temp Water Temp Dewpoint Dewpoint Depression Visibility Wind Speed Wind Dir Waves Ship Positions

Platitera Tonouranon

Last reported at 2017-Jan-20 13:33 UTC. Time now 2017-Jan-20 20:12 UTC.
Position N 37°56' E 023°41'.

Length 55 m; draft 3.8 m.

Type: Ship (hazmat cat A). MMSI: 237038200.

Date/timePositionNaut miles runAvg speedWind from/ knotsBaromVisibWave heightAir tempDewpointWater temp
2017-Jan-20 13:33N 37°56' E 023°41'0 0.0
2017-Jan-20 12:34N 37°56' E 023°41'0 0.0
2017-Jan-20 11:33N 37°56' E 023°41'0 0.0
2017-Jan-20 10:34N 37°56' E 023°41'0 0.0
2017-Jan-20 09:33N 37°56' E 023°41'0 0.0
2017-Jan-20 08:33N 37°56' E 023°41'0 0.0
2017-Jan-20 07:33N 37°56' E 023°41'0 0.0
2017-Jan-20 06:33N 37°56' E 023°41'0 0.0
2017-Jan-20 05:33N 37°56' E 023°41'0 0.0
2017-Jan-19 18:33N 37°56' E 023°41'0 0.1
2017-Jan-19 17:33N 37°56' E 023°41'1110.9
2017-Jan-19 16:33N 37°46' E 023°37'1211.6
2017-Jan-19 15:33N 37°35' E 023°33'1211.2
2017-Jan-19 14:29N 37°23' E 023°29'5 2.3
2017-Jan-19 12:11N 37°28' E 023°30'3 3.2
2017-Jan-19 11:10N 37°30' E 023°27'6 9.7
2017-Jan-19 10:32N 37°36' E 023°26'9 8.0
2017-Jan-19 09:26N 37°45' E 023°26'0 0.0
2017-Jan-19 08:33N 37°45' E 023°26'2 2.0
2017-Jan-19 07:33N 37°47' E 023°26'1111.0
2017-Jan-19 06:33N 37°52' E 023°38'5 4.6
2017-Jan-19 05:33N 37°56' E 023°41'0 0.0
2017-Jan-19 04:34N 37°56' E 023°41'0 0.0
2017-Jan-18 16:28N 37°56' E 023°41'0 0.0
2017-Jan-18 15:33N 37°56' E 023°41'0 0.0
2017-Jan-18 14:33N 37°56' E 023°41'0 0.0
2017-Jan-18 13:33N 37°56' E 023°41'0 0.0
2017-Jan-18 12:33N 37°56' E 023°41'0 0.0
2017-Jan-18 11:33N 37°56' E 023°41'0 0.0
2017-Jan-18 10:33N 37°56' E 023°41'0 0.0
2017-Jan-18 09:33N 37°56' E 023°41'0 0.0
2017-Jan-18 08:33N 37°56' E 023°41'0 0.0
2017-Jan-18 07:33N 37°56' E 023°41'0 0.0
2017-Jan-18 06:33N 37°56' E 023°41'0 0.0
2017-Jan-17 17:33N 37°56' E 023°41'9 9.0
2017-Jan-17 16:33N 37°49' E 023°34'8 7.3
2017-Jan-17 15:27N 37°45' E 023°26'0 0.0
2017-Jan-17 14:32N 37°45' E 023°26'4 4.4
2017-Jan-17 13:33N 37°40' E 023°26'1211.5
2017-Jan-17 12:28N 37°29' E 023°32'2 0.7
2017-Jan-17 09:33N 37°29' E 023°29'3 3.3
2017-Jan-17 08:32N 37°31' E 023°25'1111.7
2017-Jan-17 07:33N 37°41' E 023°32'1211.8
2017-Jan-17 06:34N 37°52' E 023°37'5 0.4
2017-Jan-16 17:14N 37°56' E 023°41'812.5
2017-Jan-16 16:33N 37°49' E 023°35'9 7.7
2017-Jan-16 15:25N 37°45' E 023°26'5 2.3
2017-Jan-16 13:23N 37°40' E 023°25'13 6.2
2017-Jan-16 11:13N 37°27' E 023°31'2 0.6
2017-Jan-16 08:24N 37°29' E 023°32'1011.9
2017-Jan-16 07:32N 37°39' E 023°32'1211.7
2017-Jan-16 06:33N 37°50' E 023°36'7 7.1
2017-Jan-16 05:33N 37°56' E 023°41'0 0.0
2017-Jan-16 04:34N 37°56' E 023°41'0 0.0
2017-Jan-15 17:11N 37°56' E 023°41'0 0.0
2017-Jan-15 16:33N 37°56' E 023°41'7 7.4
2017-Jan-15 15:33N 37°52' E 023°34'12 4.0
2017-Jan-15 12:32N 37°41' E 023°27'1211.7
2017-Jan-15 11:32N 37°30' E 023°32'4 1.1
2017-Jan-15 08:26N 37°33' E 023°32'1112.0
2017-Jan-15 07:33N 37°44' E 023°33'1211.7
2017-Jan-15 06:33N 37°54' E 023°39'2 2.4
2017-Jan-15 05:33N 37°56' E 023°41'0 0.0
2017-Jan-15 04:33N 37°56' E 023°41'0 0.0
2017-Jan-14 18:10N 37°56' E 023°41'0 0.0
2017-Jan-14 17:33N 37°56' E 023°41'3 3.2
2017-Jan-14 16:33N 37°54' E 023°38'1211.5
2017-Jan-14 15:33N 37°47' E 023°26'3 1.8
2017-Jan-14 14:03N 37°45' E 023°26'0 0.0
2017-Jan-14 13:32N 37°45' E 023°26'7 7.6
2017-Jan-14 12:33N 37°37' E 023°27'1511.0
2017-Jan-14 11:12N 37°23' E 023°29'1 0.5
2017-Jan-14 09:20N 37°22' E 023°28'1010.7
2017-Jan-14 08:25N 37°31' E 023°32'1011.8
2017-Jan-14 07:33N 37°42' E 023°32'1111.5
2017-Jan-14 06:33N 37°52' E 023°38'5 4.7
2017-Jan-14 05:33N 37°56' E 023°41'0 0.0
2017-Jan-14 04:33N 37°56' E 023°41'0 0.0
2017-Jan-13 17:33N 37°56' E 023°41'9 8.6
2017-Jan-13 16:33N 37°51' E 023°33'8 3.3
2017-Jan-13 14:04N 37°45' E 023°26'4 8.1
2017-Jan-13 13:32N 37°40' E 023°25'1110.8
2017-Jan-13 12:33N 37°30' E 023°27'8 2.5
2017-Jan-13 09:12N 37°22' E 023°28'1911.6
2017-Jan-13 07:32N 37°40' E 023°35'1211.9
2017-Jan-13 06:33N 37°51' E 023°39'5 0.4
2017-Jan-12 17:33N 37°56' E 023°41'9 8.6
2017-Jan-12 16:33N 37°48' E 023°37'1212.0
2017-Jan-12 15:33N 37°38' E 023°29'16 6.4
2017-Jan-12 13:06N 37°22' E 023°29'11 4.2
2017-Jan-12 10:33N 37°33' E 023°30'1211.9
2017-Jan-12 09:33N 37°44' E 023°25'1 0.7
2017-Jan-12 08:20N 37°45' E 023°26'1 1.6
2017-Jan-12 07:33N 37°46' E 023°25'1211.6
2017-Jan-12 06:33N 37°53' E 023°36'5 5.1
2017-Jan-12 05:33N 37°56' E 023°41'0 0.0
2017-Jan-12 04:33N 37°56' E 023°41'0 0.0
2017-Jan-12 03:34N 37°56' E 023°41'0 0.0
2017-Jan-12 02:33N 37°56' E 023°41'0 0.0
2017-Jan-12 01:34N 37°56' E 023°41'0 0.0
2017-Jan-12 00:33N 37°56' E 023°41'0 0.0
2017-Jan-11 23:33N 37°56' E 023°41'0 0.0
2017-Jan-11 22:33N 37°56' E 023°41'0 0.0
2017-Jan-11 21:33N 37°56' E 023°41'0 0.0
2017-Jan-11 20:34N 37°56' E 023°41'0 0.0
2017-Jan-11 19:33N 37°56' E 023°41'0 0.0
2017-Jan-11 18:33N 37°56' E 023°41'0 0.0
2017-Jan-11 17:33N 37°56' E 023°41'0 0.0
2017-Jan-11 16:33N 37°56' E 023°41'0 0.0
2017-Jan-11 15:33N 37°56' E 023°41'0 0.0
2017-Jan-11 14:34N 37°56' E 023°41'0 0.0
2017-Jan-11 13:34N 37°56' E 023°41'0 0.0
2017-Jan-11 12:33N 37°56' E 023°41'0 0.0
2017-Jan-11 11:33N 37°56' E 023°41'0 0.0
2017-Jan-11 10:34N 37°56' E 023°41'0 0.0
2017-Jan-11 09:33N 37°56' E 023°41'0 0.0
2017-Jan-11 08:34N 37°56' E 023°41'0 0.0
2017-Jan-11 07:33N 37°56' E 023°41'0 0.0
2017-Jan-11 06:33N 37°56' E 023°41'0 0.0
2017-Jan-10 13:34N 37°56' E 023°41'  

Dump ship's entire track history